Time;durP1;ratioP1;P1;durP2;ratioP2;P2;SDS_P1;SDS_P2;PMS_P1;PMS_P2;Temp;Humidity;BMP_temperature;BMP_pressure;BME280_temperature;BME280_humidity;BME280_pressure;Samples;Min_cycle;Max_cycle;Signal;HPM_P1;HPM_P2
2021/11/05 00:00:50;;;;;;;14.60;11.18;;;6.80;95.80;;;;;;5073377;28;20446;-74
2021/11/05 00:03:16;;;;;;;15.50;10.57;;;6.80;95.80;;;;;;5073525;28;20016;-75
2021/11/05 00:05:42;;;;;;;13.75;9.85;;;6.80;95.90;;;;;;5072615;28;20025;-75
2021/11/05 00:08:07;;;;;;;15.23;10.40;;;6.80;96.10;;;;;;5054964;28;20025;-74
2021/11/05 00:10:38;;;;;;;13.52;9.18;;;6.80;96.00;;;;;;5054995;28;20032;-75
2021/11/05 00:13:04;;;;;;;13.88;9.25;;;6.80;95.90;;;;;;5072507;28;20507;-75
2021/11/05 00:15:30;;;;;;;13.05;9.25;;;6.80;95.90;;;;;;5073263;28;20025;-75
2021/11/05 00:17:55;;;;;;;13.88;9.35;;;6.90;96.00;;;;;;5068101;28;20020;-73
2021/11/05 00:20:22;;;;;;;15.55;9.35;;;6.90;95.90;;;;;;5061081;28;20111;-74
2021/11/05 00:22:48;;;;;;;13.18;8.27;;;6.90;95.80;;;;;;5054641;28;20437;-75
2021/11/05 00:25:14;;;;;;;13.73;9.20;;;6.80;95.80;;;;;;5072775;28;20055;-74
2021/11/05 00:27:40;;;;;;;11.90;7.85;;;6.80;95.80;;;;;;5054570;28;20036;-74
2021/11/05 00:30:09;;;;;;;10.98;7.75;;;6.80;95.90;;;;;;5054567;28;20111;-75
2021/11/05 00:32:35;;;;;;;13.73;8.65;;;6.80;96.00;;;;;;5072180;28;20397;-75
2021/11/05 00:35:01;;;;;;;13.07;8.15;;;6.80;96.00;;;;;;5072042;28;20020;-75
2021/11/05 00:37:27;;;;;;;15.13;9.38;;;6.80;95.90;;;;;;5072591;28;20419;-74
2021/11/05 00:39:53;;;;;;;14.48;7.88;;;6.80;96.10;;;;;;5054170;28;20032;-75
2021/11/05 00:42:18;;;;;;;12.15;7.57;;;6.90;96.10;;;;;;5072200;28;20378;-75
2021/11/05 00:44:44;;;;;;;13.18;7.78;;;6.90;96.10;;;;;;5072246;28;20017;-75
2021/11/05 00:47:10;;;;;;;16.30;7.53;;;6.90;96.20;;;;;;5072083;28;20378;-74
2021/11/05 00:49:35;;;;;;;15.65;7.57;;;6.90;96.40;;;;;;5054367;28;20050;-74
2021/11/05 00:52:01;;;;;;;13.20;8.27;;;6.90;96.20;;;;;;5054322;28;20373;-75
2021/11/05 00:54:27;;;;;;;14.60;6.85;;;6.90;96.20;;;;;;5072705;28;20063;-75
2021/11/05 00:56:52;;;;;;;12.65;7.00;;;6.90;96.20;;;;;;5054322;28;20024;-75
2021/11/05 00:59:18;;;;;;;16.67;7.70;;;6.90;96.10;;;;;;5072923;28;20412;-75
2021/11/05 01:01:44;;;;;;;11.25;6.20;;;6.90;96.10;;;;;;5055765;28;20105;-76
2021/11/05 01:04:09;;;;;;;12.40;6.80;;;6.90;96.10;;;;;;5073320;28;20070;-75
2021/11/05 01:06:35;;;;;;;10.13;6.68;;;6.90;96.10;;;;;;5072502;28;20028;-75
2021/11/05 01:09:02;;;;;;;13.90;6.90;;;6.90;96.00;;;;;;5072032;28;20476;-75
2021/11/05 01:11:27;;;;;;;11.35;6.50;;;6.90;96.10;;;;;;5054528;28;20082;-75
2021/11/05 01:13:53;;;;;;;16.42;6.90;;;6.90;96.00;;;;;;5072350;28;20457;-75
2021/11/05 01:16:19;;;;;;;15.50;7.47;;;6.90;96.00;;;;;;5054284;28;20032;-75
2021/11/05 01:18:46;;;;;;;10.68;5.65;;;6.80;96.00;;;;;;5054227;28;20484;-76
2021/11/05 01:21:12;;;;;;;11.63;7.55;;;6.80;96.10;;;;;;5072125;28;20476;-74
2021/11/05 01:23:38;;;;;;;15.48;7.35;;;6.80;95.90;;;;;;5071964;28;20029;-75
2021/11/05 01:26:03;;;;;;;12.40;7.85;;;6.80;96.30;;;;;;5075665;28;20369;-75
2021/11/05 01:28:29;;;;;;;13.85;7.70;;;6.80;96.10;;;;;;5057896;28;20515;-75
2021/11/05 01:30:55;;;;;;;19.13;8.38;;;6.80;96.10;;;;;;5075404;28;20044;-75
2021/11/05 01:33:20;;;;;;;18.42;8.40;;;6.80;96.20;;;;;;5057973;28;20025;-75
2021/11/05 01:35:46;;;;;;;13.23;7.97;;;6.80;96.30;;;;;;5057950;28;20468;-75
2021/11/05 01:38:12;;;;;;;14.35;8.82;;;6.80;96.30;;;;;;5075863;28;20085;-75
2021/11/05 01:40:41;;;;;;;13.88;8.52;;;6.80;96.30;;;;;;5057955;28;20021;-75
2021/11/05 01:43:08;;;;;;;13.38;8.38;;;6.80;96.40;;;;;;5075783;28;20071;-74
2021/11/05 01:45:34;;;;;;;14.43;8.50;;;6.80;96.30;;;;;;5075669;28;20104;-75
2021/11/05 01:48:00;;;;;;;17.63;8.55;;;6.80;96.50;;;;;;5075283;28;20111;-74
2021/11/05 01:50:27;;;;;;;15.05;9.07;;;6.80;96.50;;;;;;5075130;28;20384;-74
2021/11/05 01:52:54;;;;;;;15.73;8.20;;;6.90;96.60;;;;;;5057434;28;20017;-75
2021/11/05 01:55:19;;;;;;;15.45;8.55;;;6.80;96.60;;;;;;5057491;28;20066;-75
2021/11/05 01:57:45;;;;;;;15.55;8.40;;;6.80;96.60;;;;;;5057540;28;20028;-75
2021/11/05 02:00:15;;;;;;;14.13;8.00;;;6.80;96.60;;;;;;5075437;28;20520;-75
2021/11/05 02:02:41;;;;;;;15.48;7.28;;;6.80;96.60;;;;;;5075687;28;20016;-74
2021/11/05 02:05:06;;;;;;;13.57;7.70;;;6.80;96.50;;;;;;5057193;28;20103;-75
2021/11/05 02:07:35;;;;;;;16.75;8.23;;;6.80;96.60;;;;;;5057426;28;20365;-75
2021/11/05 02:10:09;;;;;;;13.02;8.05;;;6.70;96.50;;;;;;5057178;28;20063;-75
2021/11/05 02:12:35;;;;;;;13.13;7.07;;;6.80;96.50;;;;;;5075627;28;20036;-75
2021/11/05 02:15:03;;;;;;;13.50;6.68;;;6.80;96.50;;;;;;5076155;28;20025;-74
2021/11/05 02:17:28;;;;;;;12.95;6.32;;;6.80;96.60;;;;;;5064464;28;20015;-74
2021/11/05 02:19:57;;;;;;;13.32;6.43;;;6.80;96.50;;;;;;5092770;28;20024;-74
2021/11/05 02:22:23;;;;;;;12.63;6.15;;;6.80;96.50;;;;;;5074777;28;20659;-74
2021/11/05 02:24:49;;;;;;;12.05;5.97;;;6.80;96.50;;;;;;5057581;28;20289;-74
2021/11/05 02:27:15;;;;;;;15.25;6.88;;;6.80;96.60;;;;;;5074741;28;20032;-75
2021/11/05 02:29:41;;;;;;;13.45;6.53;;;6.80;96.60;;;;;;5056930;28;20107;-75
2021/11/05 02:32:07;;;;;;;13.82;6.45;;;6.70;96.50;;;;;;5074589;28;20454;-76
2021/11/05 02:34:33;;;;;;;11.80;5.50;;;6.70;96.50;;;;;;5075231;28;20028;-75
2021/11/05 02:37:03;;;;;;;12.18;5.50;;;6.70;96.50;;;;;;5056500;28;20086;-75
2021/11/05 02:39:28;;;;;;;14.23;5.93;;;6.80;96.70;;;;;;5075008;28;20024;-76
2021/11/05 02:41:54;;;;;;;10.98;5.63;;;6.80;96.70;;;;;;5074666;28;20017;-75
2021/11/05 02:44:21;;;;;;;12.80;5.80;;;6.80;96.70;;;;;;5074807;28;20465;-75
2021/11/05 02:46:47;;;;;;;9.10;4.70;;;6.80;96.60;;;;;;5056414;28;20029;-75
2021/11/05 02:49:16;;;;;;;12.48;5.63;;;6.80;96.70;;;;;;5074398;28;20035;-74
2021/11/05 02:51:44;;;;;;;10.77;5.25;;;6.80;96.70;;;;;;5056767;28;20059;-74
2021/11/05 02:54:11;;;;;;;10.13;5.20;;;6.80;96.80;;;;;;5075916;28;20017;-74
2021/11/05 02:56:36;;;;;;;12.32;4.90;;;6.80;96.90;;;;;;5058360;28;20020;-74
2021/11/05 02:59:03;;;;;;;11.02;4.63;;;6.80;97.00;;;;;;5075717;28;20035;-74
2021/11/05 03:01:29;;;;;;;13.30;4.95;;;6.80;97.00;;;;;;5074205;28;20142;-75
2021/11/05 03:04:00;;;;;;;11.35;4.22;;;6.90;97.10;;;;;;5056135;28;20020;-75
2021/11/05 03:06:26;;;;;;;10.35;4.55;;;6.90;97.10;;;;;;5056204;28;20517;-75
2021/11/05 03:08:52;;;;;;;8.45;4.13;;;6.80;97.10;;;;;;5074153;28;20064;-74
2021/11/05 03:11:18;;;;;;;8.43;3.53;;;6.90;97.10;;;;;;5056080;28;20020;-74
2021/11/05 03:13:44;;;;;;;10.20;3.47;;;6.90;97.10;;;;;;5074269;28;20119;-74
2021/11/05 03:16:10;;;;;;;9.10;3.60;;;6.90;97.10;;;;;;5056269;28;20021;-75
2021/11/05 03:18:40;;;;;;;11.23;3.50;;;6.90;97.10;;;;;;5056417;28;20029;-75
2021/11/05 03:21:08;;;;;;;6.80;3.30;;;6.90;97.10;;;;;;5073850;28;20040;-74
2021/11/05 03:23:35;;;;;;;10.85;3.17;;;6.90;97.10;;;;;;5074180;28;20521;-74
2021/11/05 03:26:00;;;;;;;13.88;3.20;;;6.90;97.00;;;;;;5055741;28;20078;-76
2021/11/05 03:28:26;;;;;;;7.32;2.65;;;6.90;97.00;;;;;;5073749;28;20457;-75
2021/11/05 03:30:52;;;;;;;7.45;3.20;;;6.90;96.90;;;;;;5073756;28;20478;-75
2021/11/05 03:33:18;;;;;;;9.40;3.17;;;6.90;97.00;;;;;;5073847;28;20465;-73
2021/11/05 03:35:43;;;;;;;13.77;3.72;;;6.90;96.90;;;;;;5073583;28;20024;-74
2021/11/05 03:38:09;;;;;;;8.27;3.08;;;6.90;96.80;;;;;;5056208;28;20393;-73
2021/11/05 03:40:36;;;;;;;9.65;3.60;;;6.90;96.80;;;;;;5056876;28;20020;-75
2021/11/05 03:43:14;;;;;;;9.32;2.72;;;6.90;96.90;;;;;;5073444;28;20532;-74
2021/11/05 03:45:40;;;;;;;10.90;3.03;;;6.90;96.90;;;;;;5055674;28;20032;-75
2021/11/05 03:48:05;;;;;;;8.15;3.13;;;6.90;96.90;;;;;;5072445;28;20071;-75
2021/11/05 03:50:31;;;;;;;7.85;3.25;;;6.90;97.00;;;;;;5055509;28;20062;-75
2021/11/05 03:52:57;;;;;;;7.65;2.65;;;6.90;96.90;;;;;;5073215;28;20099;-75
2021/11/05 03:55:23;;;;;;;13.10;3.20;;;6.90;96.90;;;;;;5073726;28;20099;-74
2021/11/05 03:57:48;;;;;;;8.88;3.00;;;6.90;96.70;;;;;;5073496;28;20024;-74
2021/11/05 04:00:14;;;;;;;10.40;3.33;;;6.90;96.60;;;;;;5073270;28;20426;-74
2021/11/05 04:02:40;;;;;;;11.25;3.58;;;6.90;96.60;;;;;;5055546;28;20047;-74
2021/11/05 04:05:06;;;;;;;11.57;3.40;;;6.90;96.60;;;;;;5055059;28;20210;-74
2021/11/05 04:07:32;;;;;;;10.23;3.42;;;6.90;96.60;;;;;;5073078;28;20040;-75
2021/11/05 04:09:58;;;;;;;7.63;3.38;;;6.90;96.60;;;;;;5073278;28;20055;-75
2021/11/05 04:12:24;;;;;;;10.77;2.92;;;6.80;96.50;;;;;;5055466;28;20052;-75
2021/11/05 04:14:49;;;;;;;9.68;2.90;;;6.90;96.60;;;;;;5055216;28;20024;-74
2021/11/05 04:17:16;;;;;;;14.27;3.83;;;6.90;96.60;;;;;;5073514;28;20462;-76
2021/11/05 04:19:42;;;;;;;12.90;3.83;;;6.90;96.60;;;;;;5063608;28;20025;-74
2021/11/05 04:22:08;;;;;;;7.35;3.30;;;6.90;96.60;;;;;;5068918;28;20017;-75
2021/11/05 04:24:34;;;;;;;9.82;3.25;;;6.90;96.60;;;;;;5073088;28;20526;-75
2021/11/05 04:27:00;;;;;;;9.25;2.80;;;6.90;96.50;;;;;;5072920;28;20024;-76
2021/11/05 04:29:26;;;;;;;12.80;3.35;;;6.90;96.40;;;;;;5072895;28;20028;-75
2021/11/05 04:31:52;;;;;;;12.13;3.08;;;6.80;96.30;;;;;;5054516;28;20140;-75
2021/11/05 04:34:17;;;;;;;13.68;3.25;;;6.80;96.30;;;;;;5072151;28;20024;-73
2021/11/05 04:36:43;;;;;;;8.25;2.80;;;6.80;96.20;;;;;;5054539;28;20093;-73
2021/11/05 04:39:14;;;;;;;6.80;2.58;;;6.80;96.20;;;;;;5072408;28;20025;-74
2021/11/05 04:41:40;;;;;;;10.20;3.40;;;6.70;96.10;;;;;;5054967;28;20094;-74
2021/11/05 04:44:06;;;;;;;7.15;2.53;;;6.70;96.10;;;;;;5073021;28;20046;-74
2021/11/05 04:46:31;;;;;;;10.07;2.95;;;6.70;96.00;;;;;;5075464;28;20032;-74
2021/11/05 04:48:58;;;;;;;9.18;2.90;;;6.70;96.10;;;;;;5074920;28;20036;-73
2021/11/05 04:51:24;;;;;;;11.55;3.42;;;6.60;96.10;;;;;;5056379;28;20016;-74
2021/11/05 04:53:49;;;;;;;12.30;3.35;;;6.70;96.10;;;;;;5073315;28;20027;-74
2021/11/05 04:56:15;;;;;;;10.95;3.17;;;6.70;96.10;;;;;;5072568;28;20385;-74
2021/11/05 04:58:41;;;;;;;8.77;2.80;;;6.70;96.10;;;;;;5055283;28;20099;-74
2021/11/05 05:01:06;;;;;;;8.30;2.95;;;6.70;96.20;;;;;;5076748;28;20295;-74
2021/11/05 05:03:32;;;;;;;14.70;4.32;;;6.60;96.00;;;;;;5076912;28;20101;-75
2021/11/05 05:05:57;;;;;;;15.50;5.20;;;6.60;96.00;;;;;;5059574;28;20025;-75
2021/11/05 05:08:23;;;;;;;10.90;4.88;;;6.50;96.00;;;;;;5058834;28;20032;-74
2021/11/05 05:10:49;;;;;;;10.70;4.75;;;6.50;96.10;;;;;;5077075;28;20465;-75
2021/11/05 05:13:14;;;;;;;11.20;4.70;;;6.50;96.10;;;;;;5076748;28;20060;-74
2021/11/05 05:15:40;;;;;;;11.18;4.97;;;6.50;96.10;;;;;;5058672;28;20067;-75
2021/11/05 05:18:05;;;;;;;11.27;5.28;;;6.40;96.10;;;;;;5076304;28;20052;-75
2021/11/05 05:20:31;;;;;;;10.07;5.00;;;6.40;96.00;;;;;;5076371;28;20028;-75
2021/11/05 05:22:57;;;;;;;11.70;4.47;;;6.40;95.90;;;;;;5076119;28;20035;-75
2021/11/05 05:25:23;;;;;;;16.27;4.68;;;6.30;95.90;;;;;;5075896;28;20024;-75
2021/11/05 05:27:49;;;;;;;15.55;4.90;;;6.30;95.70;;;;;;5075765;28;20043;-74
2021/11/05 05:30:16;;;;;;;10.40;4.45;;;6.20;95.60;;;;;;5057824;28;20016;-74
2021/11/05 05:32:45;;;;;;;11.82;4.68;;;6.30;95.50;;;;;;5075559;28;20048;-74
2021/11/05 05:35:11;;;;;;;10.80;4.47;;;6.20;95.40;;;;;;5057710;28;20115;-75
2021/11/05 05:37:37;;;;;;;8.75;4.60;;;6.10;95.30;;;;;;5075456;28;20024;-75
2021/11/05 05:40:05;;;;;;;8.15;5.10;;;6.10;95.30;;;;;;5057925;28;20024;-75
2021/11/05 05:42:31;;;;;;;9.65;5.07;;;6.00;95.30;;;;;;5057793;28;20110;-75
2021/11/05 05:44:56;;;;;;;10.13;5.85;;;6.00;95.30;;;;;;5075851;28;20461;-74
2021/11/05 05:47:23;;;;;;;8.18;4.93;;;6.00;95.30;;;;;;5057471;28;20033;-75
2021/11/05 05:49:49;;;;;;;10.27;5.35;;;5.90;95.20;;;;;;5057564;28;20028;-74
2021/11/05 05:52:15;;;;;;;8.48;4.65;;;5.90;95.20;;;;;;5075312;28;20070;-74
2021/11/05 05:54:41;;;;;;;19.65;6.10;;;5.80;95.10;;;;;;5075840;28;20020;-74
2021/11/05 05:57:07;;;;;;;9.50;5.43;;;5.80;95.10;;;;;;5075169;28;20050;-73
2021/11/05 05:59:33;;;;;;;10.10;5.63;;;5.80;95.10;;;;;;5075404;28;20028;-75
2021/11/05 06:01:59;;;;;;;10.68;4.93;;;5.70;95.10;;;;;;5075226;28;20024;-74
2021/11/05 06:04:26;;;;;;;8.48;4.30;;;5.70;95.20;;;;;;5075913;28;20082;-74
2021/11/05 06:06:55;;;;;;;9.23;4.40;;;5.70;95.10;;;;;;5076238;28;20025;-75
2021/11/05 06:09:21;;;;;;;8.57;4.68;;;5.60;95.10;;;;;;5057010;28;20040;-75
2021/11/05 06:11:47;;;;;;;8.25;5.05;;;5.70;95.00;;;;;;5074814;28;20174;-74
2021/11/05 06:14:13;;;;;;;10.02;5.93;;;5.60;95.30;;;;;;5074996;28;20055;-75
2021/11/05 06:16:40;;;;;;;9.27;5.20;;;5.60;95.20;;;;;;5075008;28;20108;-75
2021/11/05 06:19:06;;;;;;;8.65;5.03;;;5.60;95.30;;;;;;5056917;28;20369;-75
2021/11/05 06:21:32;;;;;;;7.88;5.75;;;5.50;95.20;;;;;;5074929;28;20027;-75
2021/11/05 06:23:58;;;;;;;25.65;6.55;;;5.50;95.20;;;;;;5083738;28;20087;-74
2021/11/05 06:26:24;;;;;;;20.27;7.07;;;5.50;95.30;;;;;;5075806;28;20060;-75
2021/11/05 06:28:50;;;;;;;24.63;7.47;;;5.50;95.40;;;;;;5074593;28;20035;-75
2021/11/05 06:31:16;;;;;;;15.98;7.25;;;5.40;95.30;;;;;;5056370;28;20135;-75
2021/11/05 06:33:42;;;;;;;25.15;7.82;;;5.40;95.30;;;;;;5074704;28;20028;-74
2021/11/05 06:36:08;;;;;;;26.33;7.80;;;5.40;95.30;;;;;;5074553;28;20029;-75
2021/11/05 06:38:33;;;;;;;15.38;7.18;;;5.40;95.40;;;;;;5075034;28;20025;-74
2021/11/05 06:40:59;;;;;;;12.02;7.07;;;5.40;95.20;;;;;;5058558;28;20115;-75
2021/11/05 06:43:25;;;;;;;34.15;8.40;;;5.40;95.20;;;;;;5058439;28;20119;-75
2021/11/05 06:45:50;;;;;;;24.60;9.23;;;5.30;95.10;;;;;;5059285;28;20017;-75
2021/11/05 06:48:16;;;;;;;18.13;7.57;;;5.30;95.10;;;;;;5056202;28;20160;-75
2021/11/05 06:50:44;;;;;;;49.03;9.30;;;5.30;95.20;;;;;;5056698;28;20453;-73
2021/11/05 06:53:10;;;;;;;32.40;9.50;;;5.30;95.20;;;;;;5073922;28;20070;-75
2021/11/05 06:55:36;;;;;;;19.75;9.27;;;5.20;95.10;;;;;;5074259;28;20035;-74
2021/11/05 06:58:03;;;;;;;28.75;9.32;;;5.20;95.20;;;;;;5073858;28;20443;-74
2021/11/05 07:00:29;;;;;;;52.97;9.73;;;5.20;95.20;;;;;;5073557;28;20027;-76
2021/11/05 07:02:55;;;;;;;50.75;11.25;;;5.20;95.30;;;;;;5073851;28;20440;-74
2021/11/05 07:05:22;;;;;;;50.72;11.13;;;5.20;95.30;;;;;;5073825;28;20020;-74
2021/11/05 07:07:48;;;;;;;70.63;11.75;;;5.30;95.40;;;;;;5074029;28;20043;-74
2021/11/05 07:10:14;;;;;;;74.95;13.82;;;5.30;95.40;;;;;;5073773;28;20108;-75
2021/11/05 07:12:40;;;;;;;83.15;13.18;;;5.30;95.50;;;;;;5073849;28;20449;-75
2021/11/05 07:15:06;;;;;;;49.50;12.30;;;5.40;95.60;;;;;;5073656;28;20033;-75
2021/11/05 07:17:32;;;;;;;86.38;13.63;;;5.40;95.60;;;;;;5055633;28;20056;-75
2021/11/05 07:19:58;;;;;;;79.63;13.07;;;5.50;95.60;;;;;;5055854;28;20021;-74
2021/11/05 07:22:26;;;;;;;92.07;14.50;;;5.50;95.80;;;;;;5072775;28;20421;-74
2021/11/05 07:24:52;;;;;;;138.30;15.50;;;5.60;95.80;;;;;;5073413;28;20420;-75
2021/11/05 07:27:18;;;;;;;70.30;13.80;;;5.60;95.80;;;;;;5055256;28;20074;-75
2021/11/05 07:29:44;;;;;;;107.80;15.13;;;5.60;95.90;;;;;;5073327;28;20024;-74
2021/11/05 07:32:10;;;;;;;121.15;15.93;;;5.70;96.00;;;;;;5077588;28;20047;-74
2021/11/05 07:34:37;;;;;;;116.47;14.65;;;5.70;96.00;;;;;;5082072;28;20028;-74
2021/11/05 07:37:14;;;;;;;110.78;16.33;;;5.80;96.40;;;;;;5081005;28;20103;-74
2021/11/05 07:39:39;;;;;;;85.25;18.45;;;5.90;96.00;;;;;;5081497;28;20032;-75
2021/11/05 07:42:08;;;;;;;113.40;17.10;;;5.90;95.90;;;;;;5065799;28;20577;-74
2021/11/05 07:44:34;;;;;;;127.47;15.20;;;6.00;95.90;;;;;;5082227;28;20055;-74
2021/11/05 07:46:59;;;;;;;76.93;13.88;;;6.10;95.90;;;;;;5063299;28;20082;-75
2021/11/05 07:49:25;;;;;;;138.20;14.98;;;6.20;95.80;;;;;;5086775;28;20035;-75
2021/11/05 07:51:53;;;;;;;97.20;15.38;;;6.30;95.80;;;;;;5083631;28;20477;-74
2021/11/05 07:54:19;;;;;;;94.57;15.55;;;6.50;95.70;;;;;;5064010;28;20377;-73
2021/11/05 07:56:46;;;;;;;76.60;12.77;;;6.60;95.50;;;;;;5088858;28;20177;-74
2021/11/05 07:59:12;;;;;;;72.55;18.02;;;6.70;95.30;;;;;;5074982;28;20020;-74
2021/11/05 08:01:37;;;;;;;92.78;14.55;;;6.90;95.00;;;;;;5069156;28;20392;-74
2021/11/05 08:04:03;;;;;;;85.72;16.65;;;7.00;94.60;;;;;;5083337;28;20024;-74
2021/11/05 08:06:29;;;;;;;85.15;17.90;;;7.00;94.50;;;;;;5063135;28;20013;-75
2021/11/05 08:08:54;;;;;;;79.65;11.68;;;7.10;94.60;;;;;;5080833;28;20098;-75
2021/11/05 08:11:22;;;;;;;44.97;10.40;;;7.30;94.60;;;;;;5081962;28;20065;-76
2021/11/05 08:13:48;;;;;;;53.83;13.13;;;7.40;94.30;;;;;;5074279;28;20077;-75
2021/11/05 08:16:14;;;;;;;114.70;14.20;;;7.50;94.10;;;;;;5092780;28;20020;-74
2021/11/05 08:18:39;;;;;;;86.75;17.08;;;7.70;93.90;;;;;;5092960;28;20469;-75
2021/11/05 08:21:05;;;;;;;98.00;14.60;;;7.80;93.50;;;;;;5087380;28;20028;-75
2021/11/05 08:23:31;;;;;;;73.40;12.63;;;7.90;93.50;;;;;;5062487;28;20049;-75
2021/11/05 08:25:57;;;;;;;73.18;12.88;;;7.90;93.50;;;;;;5076567;28;20029;-74
2021/11/05 08:28:23;;;;;;;67.95;12.65;;;8.10;93.20;;;;;;5058725;28;20463;-74
2021/11/05 08:30:51;;;;;;;71.53;13.35;;;8.20;93.10;;;;;;5073415;28;20048;-75
2021/11/05 08:33:17;;;;;;;76.50;13.82;;;8.30;92.90;;;;;;5074283;28;20435;-76
2021/11/05 08:35:49;;;;;;;63.40;13.52;;;8.50;92.50;;;;;;5055084;28;20055;-74
2021/11/05 08:38:15;;;;;;;56.20;16.95;;;8.60;92.30;;;;;;5055432;28;20035;-74
2021/11/05 08:40:45;;;;;;;57.67;14.80;;;8.70;92.20;;;;;;5054115;28;20119;-75
2021/11/05 08:43:12;;;;;;;63.80;11.07;;;8.80;92.00;;;;;;5054030;28;20381;-76
2021/11/05 08:45:38;;;;;;;80.78;12.07;;;9.00;91.90;;;;;;5053761;28;20500;-76
2021/11/05 08:48:05;;;;;;;42.53;10.88;;;9.20;91.50;;;;;;5071961;28;20020;-75
2021/11/05 08:50:31;;;;;;;27.08;10.13;;;9.40;91.40;;;;;;5071590;28;20400;-75
2021/11/05 08:52:57;;;;;;;40.72;11.43;;;9.70;91.10;;;;;;5051693;28;20142;-75
2021/11/05 08:55:23;;;;;;;27.63;11.25;;;9.90;90.60;;;;;;5073051;28;20222;-75
2021/11/05 08:57:49;;;;;;;16.05;9.80;;;10.30;90.60;;;;;;5054046;28;20469;-76
2021/11/05 09:00:22;;;;;;;15.90;10.30;;;10.90;89.90;;;;;;5054089;28;20052;-74
2021/11/05 09:02:48;;;;;;;13.63;9.30;;;11.30;87.00;;;;;;5072186;28;20546;-74
2021/11/05 09:05:15;;;;;;;13.82;9.50;;;11.60;87.10;;;;;;5054023;28;20357;-75
2021/11/05 09:07:41;;;;;;;14.10;9.05;;;12.50;84.50;;;;;;5071857;28;20392;-75
2021/11/05 09:10:08;;;;;;;9.80;7.32;;;13.50;80.90;;;;;;5054245;28;20017;-75
2021/11/05 09:12:36;;;;;;;9.95;6.80;;;14.40;77.90;;;;;;5053779;28;20025;-75
2021/11/05 09:15:03;;;;;;;9.90;6.80;;;15.40;74.60;;;;;;5071992;28;20412;-75
2021/11/05 09:17:29;;;;;;;12.00;5.40;;;16.20;71.40;;;;;;5053972;28;20032;-75
2021/11/05 09:19:54;;;;;;;11.73;5.72;;;16.80;68.70;;;;;;5071872;28;20024;-75
2021/11/05 09:22:20;;;;;;;10.20;5.47;;;17.30;67.10;;;;;;5071812;28;20035;-75
2021/11/05 09:24:46;;;;;;;7.25;4.25;;;17.70;65.90;;;;;;5054299;28;20499;-75
2021/11/05 09:27:13;;;;;;;9.88;5.05;;;18.00;64.10;;;;;;5054001;28;20090;-75
2021/11/05 09:29:39;;;;;;;12.98;4.90;;;18.40;63.60;;;;;;5071761;28;20029;-75
2021/11/05 09:32:06;;;;;;;6.93;4.22;;;18.60;62.70;;;;;;5053437;28;20094;-76
2021/11/05 09:34:31;;;;;;;10.02;4.25;;;18.90;61.90;;;;;;5053800;28;20066;-75
2021/11/05 09:37:03;;;;;;;9.52;4.30;;;19.20;61.20;;;;;;5071935;28;20056;-75
2021/11/05 09:39:30;;;;;;;9.23;3.90;;;19.40;60.30;;;;;;5053639;28;20036;-75
2021/11/05 09:41:57;;;;;;;7.72;4.03;;;19.70;60.00;;;;;;5053985;28;20428;-75
2021/11/05 09:44:23;;;;;;;11.13;4.35;;;19.90;58.90;;;;;;5071566;28;20024;-76
2021/11/05 09:46:49;;;;;;;10.48;3.58;;;20.00;58.40;;;;;;5075196;28;20024;-76
2021/11/05 09:49:15;;;;;;;8.38;4.18;;;19.70;59.30;;;;;;5075519;28;20063;-75
2021/11/05 09:51:42;;;;;;;11.75;4.00;;;19.40;60.30;;;;;;5075553;28;20028;-75
2021/11/05 09:54:10;;;;;;;12.70;5.25;;;18.90;61.20;;;;;;5075766;28;20021;-76
2021/11/05 09:56:36;;;;;;;9.05;3.88;;;18.00;63.40;;;;;;5075444;28;20017;-76
2021/11/05 09:59:01;;;;;;;11.77;4.47;;;17.20;66.00;;;;;;5057503;28;20024;-76
2021/11/05 10:01:27;;;;;;;10.50;5.15;;;16.60;68.90;;;;;;5075068;28;20099;-76
2021/11/05 10:03:53;;;;;;;10.40;4.53;;;16.40;70.00;;;;;;5075757;28;20377;-76
2021/11/05 10:06:23;;;;;;;13.70;4.97;;;16.10;71.40;;;;;;5075419;28;20020;-75
2021/11/05 10:08:53;;;;;;;13.10;4.63;;;16.10;72.30;;;;;;5075458;28;20036;-75
2021/11/05 10:11:23;;;;;;;9.77;5.15;;;16.50;70.90;;;;;;5075082;28;20035;-75
2021/11/05 10:13:48;;;;;;;15.07;4.88;;;16.30;71.40;;;;;;5057399;28;20127;-75
2021/11/05 10:16:15;;;;;;;10.13;4.00;;;16.30;72.70;;;;;;5057466;28;20107;-75
2021/11/05 10:18:55;;;;;;;12.38;3.85;;;;;;;;;;5056992;28;20056;-76
2021/11/05 10:21:21;;;;;;;;;;;16.50;70.40;;;;;;5075852;28;20020;-76
2021/11/05 10:23:46;;;;;;;10.77;3.78;;;16.50;71.90;;;;;;5077484;28;19971;-75
2021/11/05 10:26:28;;;;;;;9.23;3.78;;;17.40;70.10;;;;;;5080977;28;20028;-75
2021/11/05 10:28:54;;;;;;;10.50;3.92;;;18.20;68.20;;;;;;5095061;28;20060;-76
2021/11/05 10:31:24;;;;;;;7.03;2.40;;;19.00;66.60;;;;;;5091722;28;20049;-76
2021/11/05 10:33:51;;;;;;;10.82;3.88;;;20.00;62.70;;;;;;5056937;28;20024;-77
2021/11/05 10:36:19;;;;;;;10.02;2.80;;;20.70;60.60;;;;;;5056725;28;20101;-76
2021/11/05 10:38:50;;;;;;;10.15;2.42;;;21.20;58.50;;;;;;5074419;28;20048;-75
2021/11/05 10:41:19;;;;;;;11.00;2.78;;;21.60;57.70;;;;;;5074948;28;20012;-76
2021/11/05 10:43:50;;;;;;;8.57;2.83;;;21.90;56.40;;;;;;5074405;28;20017;-76
2021/11/05 10:46:39;;;;;;;8.65;3.00;;;22.20;55.90;;;;;;5074327;28;20506;-76
2021/11/05 10:49:20;;;;;;;5.00;1.55;;;22.50;55.50;;;;;;5074530;28;20035;-76
2021/11/05 10:51:47;;;;;;;6.18;1.70;;;22.80;58.10;;;;;;5056110;28;20121;-76
2021/11/05 10:54:13;;;;;;;7.43;2.33;;;23.00;54.20;;;;;;5074225;28;20107;-76
2021/11/05 10:56:39;;;;;;;9.82;2.33;;;23.10;52.60;;;;;;5072676;28;20162;-77
2021/11/05 10:59:10;;;;;;;8.63;2.35;;;23.10;52.10;;;;;;5056233;28;20028;-75
2021/11/05 11:01:39;;;;;;;9.40;3.10;;;22.80;53.10;;;;;;5074100;28;20021;-76
2021/11/05 11:04:07;;;;;;;9.45;2.45;;;22.10;53.70;;;;;;5056284;28;20021;-76
2021/11/05 11:06:42;;;;;;;4.97;1.85;;;21.60;55.50;;;;;;5056084;28;20079;-75
2021/11/05 11:09:21;;;;;;;10.82;2.33;;;21.30;56.50;;;;;;5074403;28;20043;-74
2021/11/05 11:11:54;;;;;;;7.57;2.33;;;20.40;57.30;;;;;;5056032;28;20109;-76
2021/11/05 11:14:22;;;;;;;7.22;1.95;;;19.60;58.80;;;;;;5074969;28;20020;-75
2021/11/05 11:16:52;;;;;;;8.65;1.60;;;18.90;60.20;;;;;;5055986;28;20037;-76
2021/11/05 11:19:20;;;;;;;11.35;1.85;;;18.60;61.60;;;;;;5073988;28;20457;-75
2021/11/05 11:21:58;;;;;;;10.05;2.40;;;18.30;65.30;;;;;;5073193;28;20044;-76
2021/11/05 11:24:30;;;;;;;6.65;1.52;;;17.80;64.80;;;;;;5055766;28;20074;-76
2021/11/05 11:26:59;;;;;;;6.50;1.65;;;17.40;65.20;;;;;;5055978;28;20186;-76
2021/11/05 11:29:26;;;;;;;4.82;1.20;;;17.00;72.10;;;;;;5073437;28;20519;-76
2021/11/05 11:31:54;;;;;;;6.10;0.98;;;16.70;74.20;;;;;;5073415;28;20449;-76
2021/11/05 11:34:21;;;;;;;12.40;1.95;;;16.40;71.40;;;;;;5073782;28;20028;-76
2021/11/05 11:36:58;;;;;;;7.78;1.30;;;16.00;70.30;;;;;;5055936;28;20032;-77
2021/11/05 11:39:25;;;;;;;6.20;1.55;;;15.80;70.20;;;;;;5055897;28;20059;-75
2021/11/05 11:41:52;;;;;;;5.82;1.23;;;15.60;70.40;;;;;;5073896;28;20021;-75
2021/11/05 11:44:23;;;;;;;9.40;1.45;;;15.40;71.10;;;;;;5073514;28;20020;-76
2021/11/05 11:46:57;;;;;;;6.25;1.20;;;15.20;71.20;;;;;;5055655;28;20120;-75
2021/11/05 11:49:38;;;;;;;6.50;1.30;;;15.10;71.90;;;;;;5073375;28;20063;-75
2021/11/05 11:52:18;;;;;;;8.88;1.70;;;14.80;72.70;;;;;;5055331;28;20025;-76
2021/11/05 11:54:47;;;;;;;4.95;1.50;;;14.80;73.60;;;;;;5073496;28;20104;-77
2021/11/05 11:57:19;;;;;;;7.72;1.42;;;14.60;74.40;;;;;;5055427;28;20020;-77
2021/11/05 12:00:00;;;;;;;6.38;1.30;;;14.60;75.10;;;;;;5073595;28;20032;-77
2021/11/05 12:02:38;;;;;;;10.30;1.67;;;14.40;75.10;;;;;;5056259;28;20039;-76
2021/11/05 12:05:30;;;;;;;7.97;1.40;;;14.30;75.80;;;;;;5057345;28;20020;-76
2021/11/05 12:08:28;;;;;;;4.70;2.08;;;14.30;76.30;;;;;;5074602;28;20043;-76
2021/11/05 12:11:09;;;;;;;8.13;1.88;;;14.20;77.20;;;;;;5074072;28;20016;-75
2021/11/05 12:13:35;;;;;;;10.65;2.05;;;14.20;77.40;;;;;;5055851;28;20051;-76
2021/11/05 12:16:18;;;;;;;10.70;1.52;;;14.10;77.60;;;;;;5056000;28;20461;-75
2021/11/05 12:18:57;;;;;;;8.60;1.50;;;14.10;78.20;;;;;;5073032;28;20027;-75
2021/11/05 12:21:29;;;;;;;9.57;1.80;;;14.00;78.60;;;;;;5058587;28;20052;-75
2021/11/05 12:24:16;;;;;;;11.23;2.63;;;14.00;78.70;;;;;;5057098;28;20027;-75
2021/11/05 12:26:45;;;;;;;8.73;1.90;;;14.00;80.00;;;;;;5063762;28;20021;-76
2021/11/05 12:29:11;;;;;;;5.90;1.40;;;13.90;79.30;;;;;;5084116;28;20028;-76
2021/11/05 12:31:44;;;;;;;11.38;3.85;;;13.90;80.10;;;;;;5072292;28;20132;-76
2021/11/05 12:34:23;;;;;;;6.13;1.92;;;14.00;82.20;;;;;;5054572;28;20115;-76
2021/11/05 12:36:55;;;;;;;5.47;1.53;;;13.90;80.60;;;;;;5054303;28;20021;-76
2021/11/05 12:39:32;;;;;;;8.15;1.40;;;13.90;79.90;;;;;;5054685;28;20029;-75
2021/11/05 12:42:02;;;;;;;8.60;2.25;;;13.90;80.40;;;;;;5072777;28;20470;-75
2021/11/05 12:44:58;;;;;;;7.78;1.45;;;13.90;80.20;;;;;;5072621;28;20460;-75
2021/11/05 12:47:46;;;;;;;7.93;1.42;;;13.80;79.50;;;;;;5054442;28;20389;-75